createdAt,value
2022-11-04T00:04:56.434Z,10.08
2022-11-04T00:10:17.074Z,9.99
2022-11-04T00:15:56.369Z,9.97
2022-11-04T00:21:35.623Z,9.86
2022-11-04T00:27:15.756Z,9.83
2022-11-04T00:32:55.437Z,9.80
2022-11-04T00:38:17.203Z,9.75
2022-11-04T00:43:37.811Z,9.74
2022-11-04T00:48:59.112Z,9.70
2022-11-04T00:54:19.931Z,9.68
2022-11-04T00:59:40.915Z,9.67
2022-11-04T01:05:02.003Z,9.64
2022-11-04T01:10:22.977Z,9.59
2022-11-04T01:15:43.574Z,9.60
2022-11-04T01:21:06.543Z,9.60
2022-11-04T01:26:28.917Z,9.60
2022-11-04T01:31:49.532Z,9.54
2022-11-04T01:37:10.401Z,9.51
2022-11-04T01:42:31.049Z,9.48
2022-11-04T01:48:00.688Z,9.49
2022-11-04T01:53:27.740Z,9.46
2022-11-04T01:58:52.729Z,9.47
2022-11-04T02:04:26.059Z,9.47
2022-11-04T02:09:47.189Z,9.48
2022-11-04T02:15:08.185Z,9.49
2022-11-04T02:20:33.942Z,9.51
2022-11-04T02:26:20.891Z,9.55
2022-11-04T02:31:54.034Z,9.56
2022-11-04T02:37:18.520Z,9.58
2022-11-04T02:43:02.511Z,9.65
2022-11-04T02:48:37.901Z,9.72
2022-11-04T02:54:03.470Z,9.81
2022-11-04T02:59:55.299Z,9.97
2022-11-04T03:05:20.390Z,10.05
2022-11-04T03:10:45.037Z,10.25
2022-11-04T03:16:11.615Z,10.26
2022-11-04T03:21:37.059Z,10.19
2022-11-04T03:27:12.626Z,10.31
2022-11-04T03:32:44.619Z,10.25
2022-11-04T03:38:05.753Z,10.25
2022-11-04T03:43:29.027Z,10.21
2022-11-04T03:48:53.127Z,10.11
2022-11-04T03:54:15.856Z,10.10
2022-11-04T04:00:07.151Z,10.11
2022-11-04T04:05:46.458Z,10.30
2022-11-04T04:11:23.656Z,10.32
2022-11-04T04:16:47.622Z,10.38
2022-11-04T04:22:14.578Z,10.50
2022-11-04T04:27:36.348Z,10.49
2022-11-04T04:33:03.387Z,10.57
2022-11-04T04:38:45.688Z,10.68
2022-11-04T04:44:34.353Z,10.87
2022-11-04T04:49:57.933Z,10.79
2022-11-04T04:55:19.528Z,10.76
2022-11-04T05:00:40.322Z,10.86
2022-11-04T05:06:01.069Z,10.91
2022-11-04T05:11:26.205Z,10.95
2022-11-04T05:16:48.150Z,11.05
2022-11-04T05:22:08.956Z,11.06
2022-11-04T05:27:29.631Z,11.06
2022-11-04T05:32:50.474Z,10.92
2022-11-04T05:38:11.210Z,11.00
2022-11-04T05:43:32.695Z,11.09
2022-11-04T05:48:54.096Z,11.11
2022-11-04T05:54:14.777Z,11.03
2022-11-04T05:59:35.401Z,10.97
2022-11-04T06:04:56.210Z,10.97
2022-11-04T06:10:16.983Z,10.91
2022-11-04T06:15:38.040Z,10.88
2022-11-04T06:21:09.533Z,10.95
2022-11-04T06:26:31.409Z,11.02
2022-11-04T06:31:51.998Z,10.98
2022-11-04T06:37:12.797Z,11.01
2022-11-04T06:42:33.370Z,10.97
2022-11-04T06:47:54.186Z,11.01
2022-11-04T06:53:14.912Z,10.98
2022-11-04T06:58:35.775Z,10.84
2022-11-04T07:03:58.687Z,10.91
2022-11-04T07:09:19.611Z,10.89
2022-11-04T07:14:40.836Z,10.95
2022-11-04T07:20:01.798Z,10.89
2022-11-04T07:25:23.394Z,10.73
2022-11-04T07:30:44.008Z,10.62
2022-11-04T07:36:06.436Z,10.54
2022-11-04T07:41:27.296Z,10.55
2022-11-04T07:46:48.005Z,10.68
2022-11-04T07:52:08.755Z,10.85
2022-11-04T07:57:29.591Z,10.97
2022-11-04T08:02:50.703Z,10.77
2022-11-04T08:08:11.522Z,11.70
2022-11-04T08:13:35.041Z,12.18
2022-11-04T08:19:01.667Z,12.01
2022-11-04T08:24:22.735Z,11.65
2022-11-04T08:29:43.646Z,11.43
2022-11-04T08:35:04.648Z,11.31
2022-11-04T08:40:25.862Z,11.11
2022-11-04T08:45:46.846Z,11.09
2022-11-04T08:51:13.117Z,11.04
2022-11-04T08:56:39.077Z,11.06
2022-11-04T09:02:00.170Z,10.96
2022-11-04T09:07:21.332Z,10.91
2022-11-04T09:12:43.038Z,10.86
2022-11-04T09:18:04.164Z,10.88
2022-11-04T09:23:25.116Z,10.82
2022-11-04T09:28:46.036Z,10.73
2022-11-04T09:34:06.774Z,10.61
2022-11-04T09:39:27.627Z,10.43
2022-11-04T09:45:20.079Z,10.30
2022-11-04T09:50:49.341Z,10.14
2022-11-04T09:56:26.944Z,9.97
2022-11-04T10:02:03.017Z,9.93
2022-11-04T10:07:49.088Z,9.86
2022-11-04T10:13:19.223Z,9.91
2022-11-04T10:18:52.301Z,9.95
2022-11-04T10:24:16.300Z,9.81
2022-11-04T10:29:43.098Z,9.82
2022-11-04T10:35:13.059Z,9.75
2022-11-04T10:40:36.575Z,9.61
2022-11-04T10:46:07.369Z,9.59
2022-11-04T10:51:28.036Z,9.52
2022-11-04T10:56:56.800Z,9.58
2022-11-04T11:02:18.100Z,9.58
2022-11-04T11:07:39.242Z,10.37
2022-11-04T11:13:08.326Z,10.15
2022-11-04T11:18:29.634Z,10.06
2022-11-04T11:23:54.619Z,9.88
2022-11-04T11:29:29.480Z,9.80
2022-11-04T11:34:50.317Z,9.75
2022-11-04T11:40:28.298Z,9.68
2022-11-04T11:45:50.813Z,9.71
2022-11-04T11:51:26.257Z,9.67
2022-11-04T11:57:15.895Z,9.52
2022-11-04T12:02:50.627Z,9.46
2022-11-04T12:14:24.985Z,9.68
2022-11-04T12:20:20.112Z,9.73
2022-11-04T12:26:13.774Z,9.73
2022-11-04T12:31:51.248Z,9.85
2022-11-04T12:37:33.318Z,9.95
2022-11-04T12:43:12.335Z,9.97
2022-11-04T12:48:39.246Z,9.85
2022-11-04T12:54:19.072Z,9.89
2022-11-04T13:00:03.301Z,9.85
2022-11-04T13:05:58.468Z,9.92
2022-11-04T13:11:36.178Z,9.90
2022-11-04T13:17:01.111Z,9.97
2022-11-04T13:22:34.002Z,9.91
2022-11-04T13:27:54.995Z,9.86
2022-11-04T13:33:58.418Z,9.86
2022-11-04T13:39:29.544Z,9.80
2022-11-04T13:44:54.269Z,9.72
2022-11-04T13:50:37.433Z,9.64
2022-11-04T13:56:09.473Z,9.59
2022-11-04T14:01:39.141Z,9.66
2022-11-04T14:07:04.433Z,9.61
2022-11-04T14:12:30.901Z,9.56
2022-11-04T14:17:52.038Z,9.38
2022-11-04T14:23:24.514Z,9.30
2022-11-04T14:28:48.205Z,9.31
2022-11-04T14:34:26.059Z,9.32
2022-11-04T14:39:58.257Z,9.26
2022-11-04T14:45:25.656Z,9.55
2022-11-04T14:50:51.125Z,9.43
2022-11-04T14:56:24.385Z,9.27
2022-11-04T15:01:45.948Z,9.14
2022-11-04T15:07:29.238Z,9.19
2022-11-04T15:12:53.653Z,9.15
2022-11-04T15:18:21.798Z,9.16
2022-11-04T15:23:55.931Z,9.39
2022-11-04T15:29:18.659Z,9.26
2022-11-04T15:34:39.735Z,9.18
2022-11-04T15:40:00.833Z,9.20
2022-11-04T15:45:34.825Z,8.97
2022-11-04T15:51:17.198Z,8.84
2022-11-04T15:56:50.055Z,8.79
2022-11-04T16:02:49.242Z,8.77
2022-11-04T16:08:29.138Z,8.64
2022-11-04T16:13:50.003Z,8.61
2022-11-04T16:19:23.130Z,8.62
2022-11-04T16:24:48.924Z,8.75
2022-11-04T16:30:17.570Z,8.67
2022-11-04T16:35:42.818Z,8.54
2022-11-04T16:41:03.811Z,8.45
2022-11-04T16:46:24.834Z,8.37
2022-11-04T16:51:49.706Z,8.31
2022-11-04T16:57:13.287Z,8.20
2022-11-04T17:02:37.908Z,8.16
2022-11-04T17:08:04.504Z,8.18
2022-11-04T17:13:26.069Z,8.21
2022-11-04T17:18:46.943Z,8.09
2022-11-04T17:24:07.652Z,8.02
2022-11-04T17:29:29.977Z,7.99
2022-11-04T17:34:53.201Z,8.03
2022-11-04T17:40:18.454Z,7.97
2022-11-04T17:45:41.390Z,7.94
2022-11-04T17:51:07.693Z,7.89
2022-11-04T17:56:28.607Z,7.89
2022-11-04T18:01:49.796Z,7.84
2022-11-04T18:07:10.657Z,7.82
2022-11-04T18:12:37.233Z,7.71
2022-11-04T18:17:58.117Z,7.74
2022-11-04T18:23:18.761Z,7.88
2022-11-04T18:28:40.280Z,7.75
2022-11-04T18:34:04.516Z,7.74
2022-11-04T18:39:25.597Z,7.79
2022-11-04T18:44:46.533Z,7.88
2022-11-04T18:50:07.572Z,7.78
2022-11-04T18:55:32.946Z,7.79
2022-11-04T19:00:54.137Z,7.83
2022-11-04T19:06:17.814Z,7.81
2022-11-04T19:11:40.089Z,7.73
2022-11-04T19:17:00.821Z,7.69
2022-11-04T19:22:21.508Z,7.63
2022-11-04T19:27:42.408Z,7.61
2022-11-04T19:33:03.020Z,7.62
2022-11-04T19:38:24.528Z,7.70
2022-11-04T19:43:45.536Z,7.71
2022-11-04T19:49:07.749Z,7.62
2022-11-04T19:54:29.439Z,7.65
2022-11-04T19:59:51.117Z,7.57
2022-11-04T20:05:12.136Z,7.60
2022-11-04T20:10:36.107Z,7.57
2022-11-04T20:15:57.371Z,7.56
2022-11-04T20:21:20.338Z,7.60
2022-11-04T20:26:46.727Z,7.67
2022-11-04T20:32:07.617Z,7.76
2022-11-04T20:37:28.406Z,7.76
2022-11-04T20:42:49.073Z,7.76
2022-11-04T20:48:10.081Z,7.82
2022-11-04T20:53:31.352Z,7.88
2022-11-04T20:58:57.718Z,7.87
2022-11-04T21:04:21.466Z,7.96
2022-11-04T21:09:42.180Z,7.81
2022-11-04T21:15:03.172Z,7.80
2022-11-04T21:20:24.176Z,7.74
2022-11-04T21:25:54.202Z,7.76
2022-11-04T21:31:15.030Z,7.85
2022-11-04T21:36:36.264Z,7.97
2022-11-04T21:41:57.141Z,8.00
2022-11-04T21:47:17.797Z,7.98
2022-11-04T21:52:38.532Z,8.13
2022-11-04T21:57:59.216Z,8.11
2022-11-04T22:03:19.920Z,8.15
2022-11-04T22:08:46.711Z,8.11
2022-11-04T22:14:11.523Z,7.97
2022-11-04T22:19:32.228Z,7.90
2022-11-04T22:25:06.183Z,7.84
2022-11-04T22:30:27.313Z,7.77
2022-11-04T22:35:48.113Z,7.80
2022-11-04T22:41:15.056Z,7.93
2022-11-04T22:46:36.079Z,8.12
2022-11-04T22:51:56.887Z,8.13
2022-11-04T22:57:17.776Z,8.16
2022-11-04T23:02:38.790Z,8.15
2022-11-04T23:08:00.669Z,8.19
2022-11-04T23:13:40.066Z,8.32
2022-11-04T23:19:00.860Z,8.28
2022-11-04T23:24:40.132Z,8.26
2022-11-04T23:30:20.861Z,8.32
2022-11-04T23:36:05.320Z,8.32
2022-11-04T23:41:44.587Z,8.35
2022-11-04T23:47:23.720Z,8.26
2022-11-04T23:53:10.851Z,8.22
2022-11-04T23:58:50.605Z,8.29
